Time;durP1;ratioP1;P1;durP2;ratioP2;P2;SDS_P1;SDS_P2;PMS_P1;PMS_P2;Temp;Humidity;BMP_temperature;BMP_pressure;BME280_temperature;BME280_humidity;BME280_pressure;Samples;Min_cycle;Max_cycle;Signal;HPM_P1;HPM_P2
2022/07/30 00:01:36;;;;;;;4.20;2.15;;;;;;;19.94;61.84;98680.88;4171863;28;20227;-55
2022/07/30 00:03:38;;;;;;;2.17;1.98;;;;;;;19.91;61.58;98678.75;4176169;28;20216;-54
2022/07/30 00:05:40;;;;;;;7.05;2.10;;;;;;;19.88;61.77;98671.00;4168914;28;20231;-55
2022/07/30 00:07:42;;;;;;;2.35;2.13;;;;;;;19.83;61.92;98668.31;4171888;28;20270;-55
2022/07/30 00:09:44;;;;;;;2.30;2.10;;;;;;;19.79;62.15;98670.06;4173732;28;20211;-55
2022/07/30 00:11:45;;;;;;;3.05;2.38;;;;;;;19.75;62.21;98669.84;4171176;28;20823;-55
2022/07/30 00:13:47;;;;;;;3.28;1.67;;;;;;;19.73;61.84;98671.28;4172304;28;20212;-55
2022/07/30 00:15:49;;;;;;;2.47;2.10;;;;;;;19.70;62.15;98666.31;4175453;28;20204;-55
2022/07/30 00:17:51;;;;;;;3.25;2.13;;;;;;;19.61;62.27;98663.44;4172357;28;20289;-55
2022/07/30 00:19:52;;;;;;;2.05;1.85;;;;;;;19.53;62.56;98658.59;4171602;28;20208;-55
2022/07/30 00:21:57;;;;;;;3.10;2.47;;;;;;;19.51;62.60;98662.81;4176969;28;20322;-55
2022/07/30 00:23:58;;;;;;;3.10;2.17;;;;;;;19.48;62.68;98664.22;4172208;28;20570;-55
2022/07/30 00:26:02;;;;;;;3.03;1.75;;;;;;;19.45;62.61;98658.47;4173339;28;20264;-55
2022/07/30 00:28:04;;;;;;;3.95;2.60;;;;;;;19.47;62.50;98657.03;4173191;28;20223;-55
2022/07/30 00:30:06;;;;;;;4.00;2.47;;;;;;;19.42;62.93;98659.06;4170803;28;21031;-55
2022/07/30 00:32:08;;;;;;;2.88;2.33;;;;;;;19.40;62.64;98656.59;4173501;28;20224;-55
2022/07/30 00:34:11;;;;;;;2.97;1.88;;;;;;;19.35;62.56;98659.47;4177079;28;20208;-54
2022/07/30 00:36:13;;;;;;;3.63;2.83;;;;;;;19.34;62.42;98659.75;4187688;28;20215;-54
2022/07/30 00:38:15;;;;;;;3.20;2.42;;;;;;;19.30;62.73;98661.47;4173914;28;20226;-55
2022/07/30 00:40:16;;;;;;;2.70;2.03;;;;;;;19.23;62.88;98655.47;4171307;28;20254;-55
2022/07/30 00:42:24;;;;;;;2.30;2.10;;;;;;;19.17;63.02;98656.69;4174029;28;20603;-55
2022/07/30 00:44:26;;;;;;;4.07;2.00;;;;;;;19.17;62.86;98659.47;4171718;28;20218;-54
2022/07/30 00:46:28;;;;;;;4.75;2.00;;;;;;;19.15;62.99;98662.53;4176587;28;20208;-54
2022/07/30 00:48:30;;;;;;;3.10;2.00;;;;;;;19.11;63.19;98655.13;4173283;28;20212;-55
2022/07/30 00:50:32;;;;;;;4.85;2.72;;;;;;;19.10;63.15;98667.31;4171525;28;20214;-55
2022/07/30 00:52:34;;;;;;;3.05;1.90;;;;;;;19.08;63.28;98661.25;4173405;28;20254;-56
2022/07/30 00:54:37;;;;;;;2.53;2.33;;;;;;;19.07;62.97;98663.22;4185408;28;20224;-55
2022/07/30 00:56:38;;;;;;;4.63;2.15;;;;;;;19.04;63.36;98658.25;4178824;28;20238;-55
2022/07/30 00:58:40;;;;;;;3.03;2.00;;;;;;;19.03;63.18;98669.66;4170338;28;20212;-55
2022/07/30 01:00:42;;;;;;;2.65;2.05;;;;;;;18.97;63.40;98668.09;4173298;28;21219;-55
2022/07/30 01:02:44;;;;;;;4.10;2.85;;;;;;;18.93;63.57;98667.03;4167844;28;20216;-55
2022/07/30 01:04:46;;;;;;;3.05;1.92;;;;;;;18.88;63.96;98661.56;4175790;28;20215;-54
2022/07/30 01:06:48;;;;;;;4.55;2.17;;;;;;;18.83;64.08;98661.63;4171482;28;20200;-55
2022/07/30 01:08:49;;;;;;;3.00;2.45;;;;;;;18.81;64.37;98663.88;4174435;28;20212;-54
2022/07/30 01:10:51;;;;;;;3.67;2.13;;;;;;;18.76;64.18;98655.63;4174393;28;20232;-55
2022/07/30 01:12:53;;;;;;;3.60;2.28;;;;;;;18.77;64.30;98663.66;4172744;28;20238;-55
2022/07/30 01:14:57;;;;;;;2.63;1.85;;;;;;;18.71;64.69;98658.50;4155510;28;20705;-54
2022/07/30 01:16:58;;;;;;;4.03;1.85;;;;;;;18.67;64.91;98660.22;4172512;28;20277;-55
2022/07/30 01:21:31;;;;;;;2.25;1.90;;;;;;;18.55;65.34;98662.59;4172331;28;20710;-54
2022/07/30 01:23:43;;;;;;;2.22;1.90;;;;;;;18.52;65.22;98665.97;4172185;28;20200;-54
2022/07/30 01:25:55;;;;;;;11.30;2.53;;;;;;;18.48;65.38;98664.91;4176107;28;20199;-54
2022/07/30 01:28:02;;;;;;;3.03;2.05;;;;;;;18.47;65.30;98669.63;4169850;28;20204;-54
2022/07/30 01:30:05;;;;;;;5.32;2.38;;;;;;;18.42;65.55;98657.78;4175399;28;20258;-54
2022/07/30 01:32:11;;;;;;;4.05;2.75;;;;;;;18.40;65.40;98668.34;4187365;28;20657;-54
2022/07/30 01:34:13;;;;;;;3.10;2.50;;;;;;;18.40;65.71;98668.34;4157380;28;20209;-54
2022/07/30 01:36:17;;;;;;;3.50;1.92;;;;;;;18.37;65.85;98669.75;4171390;28;20207;-55
2022/07/30 01:38:21;;;;;;;2.13;1.92;;;;;;;18.34;65.64;98673.13;4174576;28;20224;-55
2022/07/30 01:40:25;;;;;;;5.22;2.38;;;;;;;18.33;65.67;98673.41;4185371;28;20212;-55
2022/07/30 01:42:27;;;;;;;2.42;2.22;;;;;;;18.30;65.43;98679.50;4175918;28;20261;-55
2022/07/30 01:44:30;;;;;;;3.05;2.33;;;;;;;18.26;65.56;98675.69;4186532;28;20245;-55
2022/07/30 01:46:32;;;;;;;2.72;2.20;;;;;;;18.26;65.62;98672.94;4171854;28;20212;-55
2022/07/30 01:48:36;;;;;;;2.40;2.22;;;;;;;18.23;65.78;98676.25;4185797;28;20896;-55
2022/07/30 01:50:41;;;;;;;3.25;2.05;;;;;;;18.18;66.00;98673.59;4177226;28;21132;-55
2022/07/30 01:52:45;;;;;;;5.13;2.72;;;;;;;18.17;65.80;98675.50;4176345;28;20456;-55
2022/07/30 01:54:51;;;;;;;2.03;1.83;;;;;;;18.14;65.59;98676.13;4174975;28;20212;-55
2022/07/30 01:56:55;;;;;;;3.25;2.95;;;;;;;18.13;65.58;98679.97;4188698;28;20202;-56
2022/07/30 01:58:57;;;;;;;2.40;1.90;;;;;;;18.14;65.80;98678.03;4173833;28;20330;-55
2022/07/30 02:00:59;;;;;;;3.05;2.40;;;;;;;18.13;65.79;98690.25;4177776;28;20228;-55
2022/07/30 02:03:01;;;;;;;2.28;2.05;;;;;;;18.08;66.09;98685.59;4175728;28;20209;-55
2022/07/30 02:05:04;;;;;;;4.55;2.42;;;;;;;18.03;66.29;98673.72;4174231;28;20256;-55
2022/07/30 02:07:13;;;;;;;2.47;1.90;;;;;;;17.97;66.45;98685.97;4173701;28;20209;-55
2022/07/30 02:09:21;;;;;;;2.30;2.10;;;;;;;17.92;66.61;98677.75;4186909;28;20211;-55
2022/07/30 02:13:47;;;;;;;3.28;2.58;;;;;;;17.83;66.89;98674.78;4174895;28;20949;-55
2022/07/30 02:15:55;;;;;;;6.85;2.92;;;;;;;17.76;67.25;98679.00;4175352;28;20242;-55
2022/07/30 02:18:02;;;;;;;2.35;2.17;;;;;;;17.77;67.09;98692.56;4171839;28;20254;-55
2022/07/30 02:20:06;;;;;;;2.45;2.25;;;;;;;17.72;67.26;98678.78;4170173;28;20216;-55
2022/07/30 02:22:14;;;;;;;8.95;2.40;;;;;;;17.67;67.27;98676.06;4178034;28;20220;-55
2022/07/30 02:24:19;;;;;;;2.58;2.38;;;;;;;17.64;67.18;98676.63;4180029;28;20681;-55
2022/07/30 02:26:23;;;;;;;2.83;2.40;;;;;;;17.68;66.76;98687.94;4180727;28;20204;-55
2022/07/30 02:28:28;;;;;;;6.47;2.38;;;;;;;17.68;66.82;98679.66;4173947;28;20228;-54
2022/07/30 02:30:32;;;;;;;3.45;2.40;;;;;;;17.65;66.59;98680.25;4180173;28;20686;-55
2022/07/30 02:32:36;;;;;;;3.03;2.10;;;;;;;17.62;66.68;98678.88;4177986;28;20215;-55
2022/07/30 02:34:39;;;;;;;2.65;2.42;;;;;;;17.56;66.82;98684.75;4178410;28;20748;-55
2022/07/30 02:36:42;;;;;;;4.22;2.58;;;;;;;17.56;66.75;98681.97;4175693;28;20562;-55
2022/07/30 02:38:45;;;;;;;8.20;3.90;;;;;;;17.53;66.79;98691.69;4172460;28;20233;-54
2022/07/30 02:40:47;;;;;;;4.68;2.97;;;;;;;17.53;66.63;98690.88;4187931;28;20277;-55
2022/07/30 02:42:51;;;;;;;2.83;2.53;;;;;;;17.54;66.81;98686.97;4170068;28;20200;-55
2022/07/30 02:44:54;;;;;;;3.60;2.50;;;;;;;17.55;66.79;98688.63;4169921;28;20242;-55
2022/07/30 02:46:56;;;;;;;2.88;2.67;;;;;;;17.50;67.11;98691.44;4173333;28;20204;-54
2022/07/30 02:48:58;;;;;;;4.93;3.00;;;;;;;17.50;67.50;98691.44;4178906;28;20243;-55
2022/07/30 02:51:02;;;;;;;3.08;2.35;;;;;;;17.46;67.59;98693.97;4170669;28;20307;-55
2022/07/30 02:53:07;;;;;;;2.75;2.10;;;;;;;17.44;67.63;98695.38;4171124;28;20200;-54
2022/07/30 02:55:10;;;;;;;2.63;2.42;;;;;;;17.45;67.71;98699.81;4189656;28;20302;-55
2022/07/30 02:57:12;;;;;;;2.88;2.60;;;;;;;17.45;67.77;98699.81;4171771;28;20204;-54
2022/07/30 02:59:15;;;;;;;3.17;2.83;;;;;;;17.42;67.94;98700.38;4174389;28;20270;-55
2022/07/30 03:01:18;;;;;;;3.25;2.53;;;;;;;17.36;68.22;98696.78;4157594;28;20217;-56
2022/07/30 03:03:20;;;;;;;3.25;2.90;;;;;;;17.32;68.50;98700.44;4171925;28;20208;-55
2022/07/30 03:05:26;;;;;;;4.95;2.67;;;;;;;17.26;68.51;98696.84;4168084;28;20208;-55
2022/07/30 03:07:28;;;;;;;3.25;2.90;;;;;;;17.28;68.70;98699.34;4174323;28;20200;-55
2022/07/30 03:09:30;;;;;;;2.53;2.33;;;;;;;17.29;68.64;98701.00;4171792;28;20258;-55
2022/07/30 03:11:52;;;;;;;4.47;2.55;;;;;;;17.25;68.97;98705.47;4185791;28;20730;-55
2022/07/30 03:13:55;;;;;;;4.18;3.30;;;;;;;17.22;68.94;98700.50;4169392;28;20217;-56
2022/07/30 03:15:57;;;;;;;3.85;3.10;;;;;;;17.21;68.98;98698.84;4186569;28;20203;-55
2022/07/30 03:18:00;;;;;;;2.80;2.60;;;;;;;17.18;68.90;98703.00;4174761;28;20224;-56
2022/07/30 03:20:03;;;;;;;4.03;3.13;;;;;;;17.18;68.62;98694.72;4185619;28;20203;-56
2022/07/30 03:22:06;;;;;;;3.38;2.65;;;;;;;17.21;68.85;98701.63;4170878;28;20231;-56
2022/07/30 03:24:08;;;;;;;3.63;3.20;;;;;;;17.18;68.85;98694.72;4177735;28;20204;-55
2022/07/30 03:26:13;;;;;;;4.03;2.92;;;;;;;17.18;68.81;98693.91;4176521;28;20258;-56
2022/07/30 03:28:15;;;;;;;4.40;2.90;;;;;;;17.16;69.13;98701.66;4169253;28;20208;-55
2022/07/30 03:30:17;;;;;;;2.15;1.95;;;;;;;17.15;69.06;98700.00;4186326;28;20208;-54
2022/07/30 03:32:20;;;;;;;4.38;2.55;;;;;;;17.13;69.24;98702.25;4183735;28;20262;-55
2022/07/30 03:34:26;;;;;;;4.90;2.50;;;;;;;17.14;69.00;98692.81;4160805;28;20300;-55
2022/07/30 03:36:29;;;;;;;7.45;3.25;;;;;;;17.08;69.29;98699.50;4187413;28;20303;-55
2022/07/30 03:38:31;;;;;;;3.75;3.45;;;;;;;17.05;69.11;98694.56;4159450;28;20232;-54
2022/07/30 03:40:33;;;;;;;3.60;2.47;;;;;;;17.02;69.16;98695.13;4171902;28;20677;-56
2022/07/30 03:42:35;;;;;;;5.53;2.95;;;;;;;17.02;68.80;98695.13;4172294;28;20651;-55
2022/07/30 03:44:37;;;;;;;3.65;2.80;;;;;;;17.02;69.15;98701.47;4159672;28;20205;-55
2022/07/30 03:46:40;;;;;;;3.92;3.00;;;;;;;16.98;69.27;98698.75;4171823;28;20209;-55
2022/07/30 03:48:42;;;;;;;3.55;3.25;;;;;;;16.95;69.33;98702.91;4186358;28;20253;-56
2022/07/30 03:50:44;;;;;;;3.72;3.25;;;;;;;16.94;69.27;98704.03;4189182;28;20234;-56
2022/07/30 03:52:49;;;;;;;3.83;3.13;;;;;;;16.94;69.09;98706.78;4171014;28;20209;-55
2022/07/30 03:54:51;;;;;;;3.60;2.65;;;;;;;16.90;69.18;98702.94;4170771;28;20235;-56
2022/07/30 03:56:53;;;;;;;3.75;3.03;;;;;;;16.87;69.24;98703.50;4186033;28;20225;-56
2022/07/30 03:58:55;;;;;;;3.78;3.28;;;;;;;16.86;69.28;98707.41;4170482;28;20224;-55
2022/07/30 04:00:56;;;;;;;4.20;3.50;;;;;;;16.82;69.87;98711.03;4177578;28;20275;-55
2022/07/30 04:02:58;;;;;;;3.72;2.92;;;;;;;16.79;69.65;98709.66;4160673;28;20204;-55
2022/07/30 04:05:00;;;;;;;3.50;3.20;;;;;;;16.78;69.69;98721.81;4176776;28;20611;-56
2022/07/30 04:07:01;;;;;;;3.58;3.17;;;;;;;16.76;69.72;98718.50;4171395;28;20203;-55
2022/07/30 04:09:07;;;;;;;4.47;3.55;;;;;;;16.69;69.86;98723.50;4175973;28;20196;-54
2022/07/30 04:11:09;;;;;;;3.35;3.05;;;;;;;16.73;69.86;98723.75;4188203;28;20294;-56
2022/07/30 04:13:11;;;;;;;4.40;2.95;;;;;;;16.72;69.99;98731.25;4184559;28;20207;-55
2022/07/30 04:15:12;;;;;;;4.35;3.78;;;;;;;16.69;70.13;98729.03;4172579;28;20281;-54
2022/07/30 04:17:46;;;;;;;4.30;3.58;;;;;;;16.58;70.76;98730.22;4180264;28;20496;-55
2022/07/30 04:19:52;;;;;;;3.53;3.22;;;;;;;16.68;70.50;98732.09;4179166;28;20685;-55
2022/07/30 04:21:54;;;;;;;4.10;3.60;;;;;;;16.70;70.36;98729.88;4174264;28;20657;-56
2022/07/30 04:23:56;;;;;;;4.47;3.55;;;;;;;16.70;70.47;98730.69;4172421;28;20221;-56
2022/07/30 04:26:06;;;;;;;4.03;3.63;;;;;;;16.67;70.73;98730.44;4172261;28;20306;-56
2022/07/30 04:28:09;;;;;;;5.50;4.28;;;;;;;16.70;70.66;98738.97;4177820;28;20227;-56
2022/07/30 04:30:11;;;;;;;7.85;4.97;;;;;;;16.61;71.33;98737.94;4175442;28;20200;-55
2022/07/30 04:32:13;;;;;;;7.25;4.53;;;;;;;16.62;71.25;98739.56;4175670;28;20227;-56
2022/07/30 04:34:15;;;;;;;6.90;4.68;;;;;;;16.34;72.54;98736.63;4169667;28;20213;-56
2022/07/30 04:36:17;;;;;;;4.93;4.53;;;;;;;16.23;73.05;98741.34;4177458;28;20208;-55
2022/07/30 04:38:19;;;;;;;5.22;4.82;;;;;;;16.16;73.29;98746.34;4185096;28;20215;-56
2022/07/30 04:40:21;;;;;;;5.25;4.85;;;;;;;16.17;73.47;98744.41;4173556;28;20208;-56
2022/07/30 04:42:24;;;;;;;4.72;4.32;;;;;;;16.12;73.68;98744.41;4175315;28;20228;-56
2022/07/30 04:44:25;;;;;;;5.18;4.78;;;;;;;16.37;72.91;98753.44;4173341;28;20227;-56
2022/07/30 04:46:27;;;;;;;5.03;4.50;;;;;;;16.23;73.47;98751.59;4170469;28;20202;-56
2022/07/30 04:48:29;;;;;;;4.30;3.95;;;;;;;16.26;73.62;98751.84;4177353;28;20219;-56
2022/07/30 04:50:33;;;;;;;4.10;3.80;;;;;;;16.33;73.00;98759.81;4175998;28;20196;-56
2022/07/30 04:52:35;;;;;;;5.50;4.35;;;;;;;16.47;72.43;98766.44;4172557;28;20207;-56
2022/07/30 04:54:41;;;;;;;4.38;4.07;;;;;;;16.53;72.16;98757.84;4172018;28;20697;-54
2022/07/30 04:56:45;;;;;;;5.85;5.30;;;;;;;16.60;72.09;98765.84;4157909;28;20935;-55
2022/07/30 04:59:02;;;;;;;3.97;3.67;;;;;;;16.70;71.64;98768.56;4172058;28;20934;-55
2022/07/30 05:01:04;;;;;;;5.88;4.55;;;;;;;16.76;71.33;98767.44;4180307;28;20224;-56
2022/07/30 05:03:07;;;;;;;4.25;3.95;;;;;;;16.87;71.10;98761.56;4170622;28;20736;-55
2022/07/30 05:05:11;;;;;;;4.18;3.70;;;;;;;16.90;71.22;98766.50;4169669;28;20208;-55
2022/07/30 05:07:13;;;;;;;4.25;3.85;;;;;;;16.97;70.97;98764.25;4169668;28;20211;-55
2022/07/30 05:09:15;;;;;;;5.20;4.80;;;;;;;16.98;71.01;98760.41;4173151;28;20213;-54
2022/07/30 05:11:17;;;;;;;4.53;4.20;;;;;;;17.03;70.86;98769.50;4159532;28;20221;-55
2022/07/30 05:13:19;;;;;;;5.57;5.18;;;;;;;16.99;71.19;98770.34;4183873;28;21039;-56
2022/07/30 05:15:22;;;;;;;4.82;4.40;;;;;;;17.04;70.74;98770.31;4171305;28;20208;-56
2022/07/30 05:17:38;;;;;;;6.28;4.20;;;;;;;17.11;70.24;98771.66;4176664;28;20250;-54
2022/07/30 05:19:39;;;;;;;5.13;4.63;;;;;;;17.18;70.17;98765.81;4173188;28;20203;-54
2022/07/30 05:21:41;;;;;;;5.00;4.32;;;;;;;17.22;70.32;98766.88;4187720;28;20234;-55
2022/07/30 05:23:43;;;;;;;5.30;4.85;;;;;;;17.15;70.74;98769.16;4175664;28;20788;-56
2022/07/30 05:25:51;;;;;;;4.47;3.80;;;;;;;17.19;70.38;98773.81;4177593;28;20295;-56
2022/07/30 05:27:53;;;;;;;4.35;3.83;;;;;;;17.21;70.29;98765.22;4177284;28;20204;-54
2022/07/30 05:29:55;;;;;;;4.32;4.00;;;;;;;17.26;70.05;98767.97;4187328;28;20235;-54
2022/07/30 05:31:57;;;;;;;4.72;4.32;;;;;;;17.29;70.06;98778.44;4186619;28;20227;-55
2022/07/30 05:34:04;;;;;;;4.90;4.25;;;;;;;17.11;71.51;98771.66;4176685;28;20207;-55
2022/07/30 05:36:06;;;;;;;4.38;3.95;;;;;;;17.24;70.96;98773.78;4186263;28;20207;-55
2022/07/30 05:38:07;;;;;;;4.55;4.25;;;;;;;17.23;71.25;98774.91;4179024;28;20273;-55
2022/07/30 05:40:10;;;;;;;5.00;4.60;;;;;;;17.31;71.53;98773.47;4170429;28;20211;-55
2022/07/30 05:42:12;;;;;;;8.38;4.57;;;;;;;17.29;71.49;98773.75;4159874;28;20236;-54
2022/07/30 05:44:13;;;;;;;5.90;4.10;;;;;;;17.29;71.48;98772.91;4171399;28;20248;-54
2022/07/30 05:46:15;;;;;;;5.82;4.47;;;;;;;17.32;71.46;98772.38;4186363;28;20214;-55
2022/07/30 05:48:17;;;;;;;4.50;4.20;;;;;;;17.40;71.07;98778.13;4174800;28;20712;-54
2022/07/30 05:50:19;;;;;;;6.30;5.05;;;;;;;17.53;70.98;98790.50;4172501;28;20614;-56
2022/07/30 05:52:21;;;;;;;5.43;5.03;;;;;;;17.78;70.47;98787.53;4185574;28;20223;-54
2022/07/30 05:54:23;;;;;;;5.00;4.60;;;;;;;17.85;69.94;98788.03;4188461;28;20226;-54
2022/07/30 05:56:25;;;;;;;5.13;4.72;;;;;;;17.98;69.35;98792.91;4172719;28;20213;-56
2022/07/30 05:58:27;;;;;;;6.03;4.30;;;;;;;18.08;69.31;98790.03;4176368;28;20228;-53
2022/07/30 06:00:28;;;;;;;4.80;4.40;;;;;;;18.31;68.88;98792.06;4171010;28;20315;-55
2022/07/30 06:02:30;;;;;;;4.40;4.00;;;;;;;18.45;68.38;98788.28;4172093;28;20275;-54
2022/07/30 06:04:34;;;;;;;5.00;4.00;;;;;;;18.63;67.90;98790.28;4161742;28;20216;-56
2022/07/30 06:06:36;;;;;;;5.55;4.38;;;;;;;18.83;67.90;98791.97;4178206;28;20703;-55
2022/07/30 06:08:37;;;;;;;6.72;4.30;;;;;;;18.96;66.97;98794.03;4177183;28;20643;-55
2022/07/30 06:10:39;;;;;;;4.38;3.97;;;;;;;18.98;66.71;98780.72;4176742;28;20610;-55
2022/07/30 06:12:41;;;;;;;5.15;3.60;;;;;;;19.08;66.37;98788.88;4172627;28;20200;-55
2022/07/30 06:14:43;;;;;;;3.78;3.47;;;;;;;19.21;66.31;98790.94;4177300;28;20215;-54
2022/07/30 06:16:45;;;;;;;5.93;3.45;;;;;;;19.49;65.21;98787.19;4160506;28;20209;-54
2022/07/30 06:18:46;;;;;;;5.50;3.50;;;;;;;19.68;65.88;98790.78;4170867;28;20657;-54
2022/07/30 06:20:50;;;;;;;4.95;3.70;;;;;;;19.78;65.15;98791.44;4175898;28;20243;-54
2022/07/30 06:22:52;;;;;;;4.63;3.65;;;;;;;19.92;64.17;98794.28;4173529;28;20208;-55
2022/07/30 06:24:54;;;;;;;4.13;3.08;;;;;;;19.88;63.75;98785.72;4173262;28;20281;-55
2022/07/30 06:26:56;;;;;;;3.55;3.25;;;;;;;19.97;63.72;98802.53;4186282;28;20566;-54
2022/07/30 06:28:58;;;;;;;7.10;3.70;;;;;;;20.01;63.34;98798.84;4189071;28;20207;-55
2022/07/30 06:31:01;;;;;;;5.15;3.53;;;;;;;20.18;63.43;98803.88;4171522;28;20235;-55
2022/07/30 06:33:03;;;;;;;5.22;3.17;;;;;;;20.37;63.68;98799.06;4170740;28;20239;-56
2022/07/30 06:35:05;;;;;;;4.03;3.58;;;;;;;20.27;62.20;98810.38;4170159;28;20196;-55
2022/07/30 06:37:07;;;;;;;5.07;4.05;;;;;;;20.39;62.39;98807.91;4173370;28;20301;-56
2022/07/30 06:39:08;;;;;;;4.43;3.45;;;;;;;20.52;62.27;98805.16;4183050;28;20227;-55
2022/07/30 06:41:11;;;;;;;3.70;3.40;;;;;;;20.40;62.28;98813.19;4174926;28;20601;-54
2022/07/30 06:43:13;;;;;;;3.35;3.05;;;;;;;20.41;62.62;98811.22;4174775;28;20258;-54
2022/07/30 06:45:17;;;;;;;4.30;3.05;;;;;;;20.64;61.98;98801.88;4176149;28;20215;-54
2022/07/30 06:47:24;;;;;;;3.97;3.20;;;;;;;20.87;61.69;98806.41;4172823;28;20273;-54
2022/07/30 06:49:26;;;;;;;9.45;3.30;;;;;;;20.85;60.88;98803.94;4172980;28;20205;-55
2022/07/30 06:51:28;;;;;;;3.30;2.78;;;;;;;21.02;62.16;98817.25;4172057;28;20224;-54
2022/07/30 06:53:30;;;;;;;4.05;2.60;;;;;;;21.24;61.35;98809.00;4188986;28;20314;-55
2022/07/30 06:55:31;;;;;;;4.55;3.50;;;;;;;21.55;61.19;98809.94;4172387;28;20261;-54
2022/07/30 06:57:34;;;;;;;3.75;3.38;;;;;;;21.78;59.81;98808.88;4175094;28;20293;-55
2022/07/30 06:59:43;;;;;;;4.13;3.72;;;;;;;21.52;59.78;98802.22;4160985;28;20216;-55
2022/07/30 07:01:57;;;;;;;3.33;2.30;;;;;;;21.86;59.55;98810.91;4170882;28;20247;-56
2022/07/30 07:03:59;;;;;;;4.75;3.05;;;;;;;22.10;59.40;98817.81;4173295;28;20207;-56
2022/07/30 07:06:02;;;;;;;3.08;2.88;;;;;;;22.08;60.75;98814.53;4173314;28;20203;-56
2022/07/30 07:08:04;;;;;;;8.02;2.72;;;;;;;22.12;58.46;98814.72;4174682;28;20206;-55
2022/07/30 07:10:07;;;;;;;5.35;2.85;;;;;;;22.35;57.56;98807.97;4170898;28;20215;-55
2022/07/30 07:12:09;;;;;;;4.85;2.67;;;;;;;22.58;57.97;98812.41;4171943;28;20318;-55
2022/07/30 07:14:11;;;;;;;4.95;2.20;;;;;;;22.74;57.86;98805.25;4168345;28;24793;-54
2022/07/30 07:16:12;;;;;;;3.85;3.10;;;;;;;22.93;57.00;98814.19;4172140;28;20229;-56
2022/07/30 07:18:14;;;;;;;4.43;2.00;;;;;;;23.14;57.06;98806.88;4167235;28;20226;-56
2022/07/30 07:20:16;;;;;;;2.95;2.75;;;;;;;23.28;56.37;98810.38;4167391;28;20823;-54
2022/07/30 07:22:17;;;;;;;3.10;2.90;;;;;;;23.33;56.59;98813.03;4175117;28;20220;-55
2022/07/30 07:24:19;;;;;;;3.53;2.40;;;;;;;23.38;55.36;98815.69;4173635;28;20596;-54
2022/07/30 07:26:21;;;;;;;4.72;2.45;;;;;;;23.31;55.75;98816.13;4173478;28;20669;-54
2022/07/30 07:28:22;;;;;;;4.50;2.83;;;;;;;23.55;56.04;98815.69;4168979;28;20239;-54
2022/07/30 07:30:34;;;;;;;4.03;3.10;;;;;;;23.57;55.03;98813.41;4174582;28;20235;-56
2022/07/30 07:32:36;;;;;;;3.95;3.13;;;;;;;23.66;55.26;98811.44;4187258;28;20693;-56
2022/07/30 07:34:38;;;;;;;3.95;2.92;;;;;;;23.72;55.38;98807.34;4183065;28;20211;-53
2022/07/30 07:36:40;;;;;;;3.58;3.28;;;;;;;23.92;53.79;98809.50;4186201;28;20219;-54
2022/07/30 07:38:41;;;;;;;3.63;3.30;;;;;;;23.76;53.75;98799.94;4171942;28;20273;-54
2022/07/30 07:40:43;;;;;;;5.85;2.88;;;;;;;23.67;54.31;98814.72;4173804;28;20207;-57
2022/07/30 07:42:45;;;;;;;4.82;3.70;;;;;;;23.74;53.39;98815.03;4181743;28;20327;-54
2022/07/30 07:44:47;;;;;;;6.10;3.75;;;;;;;23.88;53.19;98806.53;4176042;28;20629;-52
2022/07/30 07:46:49;;;;;;;5.50;3.28;;;;;;;24.00;52.99;98806.72;4185909;28;20199;-52
2022/07/30 07:48:51;;;;;;;7.18;3.40;;;;;;;24.05;53.83;98804.56;4173090;28;20208;-51
2022/07/30 07:50:54;;;;;;;5.25;3.70;;;;;;;24.27;52.32;98803.53;4169339;28;20727;-52
2022/07/30 07:53:00;;;;;;;8.07;3.45;;;;;;;24.39;52.32;98804.50;4166560;28;20638;-52
2022/07/30 07:55:02;;;;;;;4.53;3.40;;;;;;;24.44;51.78;98807.13;4173039;28;20238;-51
2022/07/30 07:57:07;;;;;;;5.15;3.78;;;;;;;24.28;52.93;98803.22;4169371;28;20200;-51
2022/07/30 07:59:15;;;;;;;4.13;2.40;;;;;;;24.58;51.52;98802.19;4177231;28;20207;-51
2022/07/30 08:01:17;;;;;;;3.63;3.33;;;;;;;24.69;52.12;98803.47;4172117;28;20236;-51
2022/07/30 08:03:19;;;;;;;3.72;3.38;;;;;;;24.73;50.82;98804.41;4171559;28;20691;-51
2022/07/30 08:05:21;;;;;;;4.82;2.70;;;;;;;25.09;50.69;98796.38;4173561;28;20231;-50
2022/07/30 08:07:23;;;;;;;2.40;2.20;;;;;;;25.04;48.93;98798.50;4174490;28;20281;-53
2022/07/30 08:09:24;;;;;;;6.45;2.10;;;;;;;25.19;48.98;98795.97;4169287;28;20243;-53
2022/07/30 08:11:44;;;;;;;5.15;1.95;;;;;;;25.50;48.37;98798.44;4156421;28;20228;-53
2022/07/30 08:13:46;;;;;;;8.18;1.80;;;;;;;25.46;46.76;98803.09;4175759;28;20218;-51
2022/07/30 08:15:53;;;;;;;9.55;2.17;;;;;;;25.53;47.68;98800.56;4173083;28;20203;-52
2022/07/30 08:17:55;;;;;;;2.80;2.22;;;;;;;25.80;46.76;98795.22;4171422;28;20273;-52
2022/07/30 08:20:00;;;;;;;3.78;1.70;;;;;;;25.86;45.61;98793.88;4177237;28;20219;-50
2022/07/30 08:22:01;;;;;;;3.92;2.17;;;;;;;25.92;45.50;98797.34;4169166;28;20266;-51
2022/07/30 08:24:04;;;;;;;4.53;2.42;;;;;;;25.96;46.53;98793.50;4186235;28;20211;-51
2022/07/30 08:26:06;;;;;;;3.72;1.70;;;;;;;26.12;45.32;98793.69;4169126;28;20230;-51
2022/07/30 08:28:08;;;;;;;3.78;1.98;;;;;;;26.27;45.95;98790.22;4169067;28;20210;-51
2022/07/30 08:30:30;;;;;;;3.42;2.03;;;;;;;25.93;45.25;98794.16;4182516;28;20231;-52
2022/07/30 08:32:32;;;;;;;11.65;2.90;;;;;;;25.41;46.67;98795.72;4169212;28;20239;-53
2022/07/30 08:34:33;;;;;;;2.85;2.58;;;;;;;25.51;46.11;98800.91;4168504;28;20611;-54
2022/07/30 08:36:35;;;;;;;4.43;2.53;;;;;;;25.52;46.25;98791.34;4186478;28;20206;-51
2022/07/30 08:38:37;;;;;;;3.22;2.67;;;;;;;25.89;47.07;98789.59;4171657;28;20661;-51
2022/07/30 08:40:39;;;;;;;4.22;3.42;;;;;;;26.26;45.88;98797.00;4187081;28;20280;-53
2022/07/30 08:42:41;;;;;;;4.40;2.25;;;;;;;25.80;45.83;98786.81;4177896;28;20207;-51
2022/07/30 08:44:45;;;;;;;8.70;2.33;;;;;;;26.10;45.81;98798.81;4176626;28;20211;-52
2022/07/30 08:46:48;;;;;;;5.18;2.30;;;;;;;26.10;45.50;98787.56;4171277;28;20270;-52
2022/07/30 08:48:51;;;;;;;7.38;1.80;;;;;;;26.78;46.74;98793.31;4174661;28;20203;-53
2022/07/30 08:50:53;;;;;;;2.08;1.58;;;;;;;26.83;44.45;98783.81;4170725;28;20228;-52
2022/07/30 08:52:55;;;;;;;3.85;2.40;;;;;;;25.93;45.61;98791.38;4173595;28;20249;-51
2022/07/30 08:54:57;;;;;;;4.03;2.22;;;;;;;26.22;45.37;98791.28;4168742;28;20207;-53
2022/07/30 08:56:59;;;;;;;4.15;2.03;;;;;;;26.77;44.80;98793.66;4184950;28;20202;-51
2022/07/30 08:59:02;;;;;;;3.15;1.50;;;;;;;27.07;42.63;98787.47;4176498;28;20203;-53
2022/07/30 09:01:05;;;;;;;12.43;1.80;;;;;;;26.96;43.65;98783.50;4186303;28;20709;-51
2022/07/30 09:03:06;;;;;;;2.78;1.38;;;;;;;26.95;42.89;98787.50;4188574;28;20297;-50
2022/07/30 09:05:09;;;;;;;2.78;1.20;;;;;;;26.97;41.82;98785.13;4186124;28;20229;-53
2022/07/30 09:07:11;;;;;;;2.17;1.20;;;;;;;26.93;42.23;98795.41;4183284;28;20222;-51
2022/07/30 09:09:13;;;;;;;3.30;1.58;;;;;;;26.87;40.74;98791.19;4169018;28;20199;-53
2022/07/30 09:11:14;;;;;;;3.03;1.45;;;;;;;27.30;40.42;98787.84;4167200;28;20232;-51
2022/07/30 09:13:28;;;;;;;2.70;1.25;;;;;;;27.27;41.55;98795.00;4175433;28;20621;-52
2022/07/30 09:15:32;;;;;;;1.40;1.30;;;;;;;27.06;40.80;98793.47;4170635;28;20199;-50
2022/07/30 09:17:52;;;;;;;1.77;1.15;;;;;;;26.76;41.11;98801.28;4177267;28;20199;-53
2022/07/30 09:20:02;;;;;;;2.20;1.55;;;;;;;27.01;40.91;98799.31;4183641;28;20219;-52
2022/07/30 09:22:05;;;;;;;1.42;0.98;;;;;;;27.56;40.68;98791.09;4175348;28;20222;-51
2022/07/30 09:24:11;;;;;;;2.65;1.30;;;;;;;27.75;39.75;98796.94;4185435;28;20218;-52
2022/07/30 09:26:13;;;;;;;4.10;1.42;;;;;;;27.47;40.16;98805.28;4184376;28;20208;-53
2022/07/30 09:28:15;;;;;;;2.30;1.48;;;;;;;27.31;40.22;98801.56;4187832;28;20758;-51
2022/07/30 09:30:17;;;;;;;4.55;1.50;;;;;;;27.36;39.93;98790.09;4173720;28;20285;-51
2022/07/30 09:32:19;;;;;;;7.10;2.28;;;;;;;27.17;39.96;98801.09;4168874;28;20608;-51
2022/07/30 09:34:24;;;;;;;3.13;1.25;;;;;;;26.85;40.39;98798.38;4168439;28;20200;-50
2022/07/30 09:36:30;;;;;;;1.58;1.30;;;;;;;27.08;40.30;98797.56;4185861;28;20207;-51
2022/07/30 09:39:04;;;;;;;1.75;1.20;;;;;;;27.51;38.90;98803.41;4182754;28;20615;-52
2022/07/30 09:41:06;;;;;;;2.22;1.15;;;;;;;27.94;39.11;98797.97;4163880;28;20716;-51
2022/07/30 09:43:27;;;;;;;2.42;1.15;;;;;;;28.16;38.51;98794.59;4169184;28;20249;-51
2022/07/30 09:45:29;;;;;;;3.92;1.20;;;;;;;28.33;39.40;98794.28;4169569;28;20211;-51
2022/07/30 09:47:40;;;;;;;1.55;1.15;;;;;;;28.26;39.39;98799.69;4181501;28;20212;-52